Aérodrome :
LOGIN :

S'inscrire | Disclaimer

   EN    FR    IT 

 










Légende :    VFR   VFR Marginal   IFR   IFR Intensif   IFR Très Intensif
Visi : 
Plafond : 
>= 8 km
>= 3000ft
5 à 8 km
1000 à 3000 ft
1500m à 5 km
500 à 1000 ft
800 à 1500m
200 à 500 ft
< 800m
< 200 ft
Symboles :   Orages  Brouillard  Fortes neiges  Fortes précipitations  Vent > 20 kt
SIGMETs :   Divers  Orages  Givrage  Turbulence  Onde Orograph.  Cendres Volcan.






- Altitude de l'aérodrome : 353 ft
- Code IATA : LIN


LIML - Milano Linate

DERNIER METAR :
  • 122020Z 22008KT 190V260 9999 -TSRA SCT010CB BKN045 27/20 Q1016 BECMG 3000 TSRA

METARs EXPIRÉS :
  • 121950Z VRB01KT 9999 TS SCT010CB BKN045 27/22 Q1016 BECMG 3000 TSRA
  • 121920Z 11003KT 060V140 9999 TS FEW010CB SCT020 BKN060 29/22 Q1015 BECMG 3000 TSRA
  • 121850Z 06003KT 9999 SCT015 BKN060 29/21 Q1015 NOSIG
  • 121820Z 07003KT 9999 FEW015 SCT060 30/21 Q1015 NOSIG
  • 121750Z 08004KT 030V120 9999 FEW060 30/21 Q1015 NOSIG
  • 121720Z 08005KT 9999 FEW060 30/21 Q1014 NOSIG

TAF TAF LIML
Valide du 12 à 18h jusqu'au 13 à 18h UTC


121700Z 1218/1318 VRB05KT 9999 FEW040
TEMPO 1220/1306 4000 TSRA



MET'MAP, la Météo Aéronautique d'un coup d'oeil ! - Copyright ORBIFLY Décembre 2007 - Disclaimer

ORBIFLY MET'MAP TEAM :

Programmation & Développement : Alexandra Zaïnal
Sur une idée originale de : Baudouin d'Aumeries
Assistance à la programmation : Marc-Olivier Méhu
Soutien technique & logistique : Manuel Goepfert

Contact : metmap@orbifly.com




SOURCES & CREDITS :

   NOAA